Time;durP1;ratioP1;P1;durP2;ratioP2;P2;SDS_P1;SDS_P2;PMS_P1;PMS_P2;Temp;Humidity;BMP_temperature;BMP_pressure;BME280_temperature;BME280_humidity;BME280_pressure;Samples;Min_cycle;Max_cycle;Signal;HPM_P1;HPM_P2
2023/02/10 00:01:24;;;;;;;10.85;2.70;;;;;;;4.28;75.09;102740.03;5091140;28;20052;-45
2023/02/10 00:03:51;;;;;;;13.80;4.22;;;;;;;4.27;75.15;102744.69;5073673;28;20123;-46
2023/02/10 00:06:20;;;;;;;12.27;3.15;;;;;;;4.25;75.15;102741.38;5091999;28;20040;-45
2023/02/10 00:08:50;;;;;;;16.25;3.63;;;;;;;4.26;75.28;102729.31;5091208;28;20052;-46
2023/02/10 00:11:17;;;;;;;8.57;2.58;;;;;;;4.26;75.24;102726.56;5101212;28;20127;-45
2023/02/10 00:13:44;;;;;;;13.77;2.42;;;;;;;4.26;75.29;102729.31;5093207;28;20097;-45
2023/02/10 00:16:14;;;;;;;11.95;2.42;;;;;;;4.29;75.54;102726.06;5091592;28;20097;-47
2023/02/10 00:18:42;;;;;;;13.95;4.25;;;;;;;4.31;75.30;102729.38;5091106;28;20028;-46
2023/02/10 00:21:12;;;;;;;8.43;3.67;;;;;;;4.32;75.55;102719.25;5091135;28;20086;-45
2023/02/10 00:23:39;;;;;;;8.80;2.97;;;;;;;4.34;75.43;102727.22;5091386;28;20047;-46
2023/02/10 00:26:08;;;;;;;8.00;2.58;;;;;;;4.36;75.48;102719.56;5073624;28;20079;-44
2023/02/10 00:28:36;;;;;;;9.15;2.00;;;;;;;4.38;75.25;102718.22;5079608;28;20035;-52
2023/02/10 00:31:08;;;;;;;12.65;4.35;;;;;;;4.37;75.23;102715.75;5090931;28;20473;-47
2023/02/10 00:33:34;;;;;;;9.73;2.30;;;;;;;4.37;75.33;102710.28;5084597;28;20082;-46
2023/02/10 00:36:06;;;;;;;18.20;3.50;;;;;;;4.36;75.73;102703.94;5096207;28;20484;-46
2023/02/10 00:38:33;;;;;;;7.50;1.85;;;;;;;4.37;75.51;102710.28;5091468;28;20561;-45
2023/02/10 00:41:04;;;;;;;17.25;2.63;;;;;;;4.39;75.82;102703.44;5090852;28;20082;-47
2023/02/10 00:43:32;;;;;;;5.82;2.25;;;;;;;4.42;75.92;102704.84;5090523;28;20044;-47
2023/02/10 00:46:03;;;;;;;8.55;2.80;;;;;;;4.46;75.70;102704.06;5090620;28;20044;-45
2023/02/10 00:48:29;;;;;;;10.10;2.65;;;;;;;4.52;75.63;102702.22;5090828;28;20139;-51
2023/02/10 00:50:56;;;;;;;10.45;2.88;;;;;;;4.56;76.00;102690.47;5090400;28;20076;-46
2023/02/10 00:53:23;;;;;;;14.80;3.15;;;;;;;4.59;76.05;102678.16;5090451;28;20517;-45
2023/02/10 00:55:49;;;;;;;14.60;2.85;;;;;;;4.62;75.83;102692.19;5090132;28;20058;-45
2023/02/10 00:58:16;;;;;;;9.63;3.55;;;;;;;4.64;75.85;102683.69;5091148;28;20052;-45
2023/02/10 01:00:43;;;;;;;12.65;3.00;;;;;;;4.67;75.71;102688.66;5089591;28;20048;-46
2023/02/10 01:03:11;;;;;;;16.35;3.38;;;;;;;4.67;76.01;102672.19;5089247;28;20079;-47
2023/02/10 01:05:37;;;;;;;10.50;3.38;;;;;;;4.70;75.84;102678.00;5071171;28;20105;-45
2023/02/10 01:08:05;;;;;;;15.52;3.05;;;;;;;4.71;75.97;102668.66;5089438;28;20044;-45
2023/02/10 01:10:36;;;;;;;12.52;2.90;;;;;;;4.74;75.92;102675.53;5093136;28;20042;-44
2023/02/10 01:13:04;;;;;;;12.88;3.70;;;;;;;4.77;76.14;102669.53;5096687;28;20052;-45
2023/02/10 01:15:32;;;;;;;7.82;2.40;;;;;;;4.77;75.97;102661.31;5089426;28;20040;-45
2023/02/10 01:17:58;;;;;;;14.55;3.40;;;;;;;4.80;76.19;102660.81;5089638;28;20058;-45
2023/02/10 01:20:26;;;;;;;14.00;3.17;;;;;;;4.80;76.00;102666.28;5070523;28;20083;-49
2023/02/10 01:22:54;;;;;;;14.75;3.15;;;;;;;4.80;76.05;102661.63;5089337;28;20063;-45
2023/02/10 01:25:21;;;;;;;8.93;2.70;;;;;;;4.80;76.35;102655.31;5089064;28;20452;-45
2023/02/10 01:27:48;;;;;;;13.30;2.85;;;;;;;4.82;76.04;102655.88;5088699;28;20048;-45
2023/02/10 01:30:15;;;;;;;13.48;3.05;;;;;;;4.81;76.32;102652.31;5088714;28;20048;-45
2023/02/10 01:32:42;;;;;;;9.00;2.88;;;;;;;4.80;76.13;102652.56;5088639;28;20051;-48
2023/02/10 01:35:08;;;;;;;10.85;2.80;;;;;;;4.81;76.27;102659.72;5097755;28;20115;-45
2023/02/10 01:37:37;;;;;;;15.10;2.60;;;;;;;4.80;76.19;102660.81;5088666;28;20048;-45
2023/02/10 01:40:05;;;;;;;12.07;2.88;;;;;;;4.80;76.20;102647.09;5088879;28;20080;-45
2023/02/10 01:42:32;;;;;;;17.90;3.63;;;;;;;4.81;76.49;102656.97;5088289;28;20122;-45
2023/02/10 01:45:17;;;;;;;8.88;2.47;;;;;;;4.79;76.36;102642.69;5088721;28;20073;-45
2023/02/10 01:47:47;;;;;;;9.20;3.35;;;;;;;4.79;76.66;102638.00;5089250;28;20044;-46
2023/02/10 01:50:15;;;;;;;13.23;3.45;;;;;;;4.80;76.63;102622.38;5088941;28;20044;-49
2023/02/10 01:52:43;;;;;;;6.63;1.98;;;;;;;4.81;76.75;102622.16;5088347;28;20048;-45
2023/02/10 01:55:14;;;;;;;13.40;2.72;;;;;;;4.80;76.81;102616.91;5088504;28;20047;-46
2023/02/10 01:57:44;;;;;;;17.35;3.05;;;;;;;4.81;76.60;102613.06;5075236;28;20036;-45
2023/02/10 02:00:12;;;;;;;9.90;2.40;;;;;;;4.82;76.98;102615.53;5088531;28;20044;-45
2023/02/10 02:02:41;;;;;;;9.40;2.60;;;;;;;4.84;76.80;102620.78;5046226;28;1218969;-45
2023/02/10 02:05:29;;;;;;;9.43;2.10;;;;;;;4.86;76.82;102621.34;5089032;28;20062;-45
2023/02/10 02:08:05;;;;;;;13.95;2.58;;;;;;;4.88;76.54;102608.19;5089111;28;20147;-45
2023/02/10 02:11:02;;;;;;;8.02;1.88;;;;;;;4.90;76.75;102606.00;5092688;28;20058;-45
2023/02/10 02:13:57;;;;;;;7.28;2.95;;;;;;;4.91;76.76;102602.19;5092377;28;20056;-45
2023/02/10 02:16:35;;;;;;;5.97;1.77;;;;;;;4.92;76.87;102604.66;5088933;28;20067;-45
2023/02/10 02:19:33;;;;;;;9.35;1.90;;;;;;;4.95;76.99;102597.00;5077274;28;20123;-45
2023/02/10 02:22:09;;;;;;;8.07;1.90;;;;;;;4.96;76.69;102588.50;5089522;28;20044;-44
2023/02/10 02:24:59;;;;;;;11.32;1.90;;;;;;;4.98;76.71;102596.47;5088597;28;20540;-45
2023/02/10 02:27:29;;;;;;;5.47;2.47;;;;;;;4.99;76.60;102596.19;5088849;28;20038;-45
2023/02/10 02:30:10;;;;;;;8.65;1.40;;;;;;;5.00;76.85;102577.81;5084097;28;20044;-45
2023/02/10 02:32:49;;;;;;;7.85;1.98;;;;;;;5.00;76.73;102564.94;5082542;28;20085;-44
2023/02/10 02:35:24;;;;;;;14.23;2.67;;;;;;;5.01;76.62;102546.53;5098706;28;20071;-49
2023/02/10 02:37:52;;;;;;;5.60;1.90;;;;;;;5.02;76.98;102565.50;5088521;28;20036;-45
2023/02/10 02:40:20;;;;;;;9.38;1.60;;;;;;;5.03;76.75;102561.63;5089361;28;20147;-48
2023/02/10 02:42:48;;;;;;;14.40;1.95;;;;;;;5.04;77.00;102579.78;5088640;28;20050;-45
2023/02/10 02:45:42;;;;;;;5.80;1.65;;;;;;;5.06;76.74;102566.59;5087970;28;20105;-45
2023/02/10 02:48:15;;;;;;;7.88;1.60;;;;;;;5.09;77.05;102562.50;5088517;28;20494;-45
2023/02/10 02:50:50;;;;;;;11.88;2.88;;;;;;;5.10;76.92;102550.44;5088627;28;20383;-45
2023/02/10 02:53:44;;;;;;;2.80;1.10;;;;;;;5.11;77.00;102552.09;5088706;28;20047;-45
2023/02/10 02:56:34;;;;;;;10.55;1.88;;;;;;;5.12;76.74;102551.81;5089036;28;20052;-46
2023/02/10 02:59:31;;;;;;;13.30;2.45;;;;;;;5.12;77.01;102546.34;5088478;28;20052;-46
2023/02/10 03:02:01;;;;;;;4.78;1.13;;;;;;;5.13;77.03;102545.25;5171228;22;20122;-44
2023/02/10 03:04:33;;;;;;;8.90;1.50;;;;;;;5.15;76.78;102548.56;5088457;28;20048;-44
2023/02/10 03:07:01;;;;;;;10.27;1.63;;;;;;;5.16;76.94;102555.72;5088464;28;20048;-46
2023/02/10 03:09:28;;;;;;;6.72;2.08;;;;;;;5.19;76.99;102546.13;5088553;28;20556;-48
2023/02/10 03:11:55;;;;;;;9.02;1.33;;;;;;;5.20;76.89;102561.47;5088361;28;20052;-47
2023/02/10 03:14:22;;;;;;;6.18;1.92;;;;;;;5.21;77.19;102558.50;5089008;28;20119;-46
2023/02/10 03:16:49;;;;;;;8.20;1.65;;;;;;;5.22;77.31;102553.78;5088423;28;20126;-47
2023/02/10 03:19:15;;;;;;;9.30;1.63;;;;;;;5.23;77.19;102561.78;5088692;28;20052;-46
2023/02/10 03:21:42;;;;;;;7.32;1.00;;;;;;;5.24;77.15;102549.69;5088778;28;20044;-46
2023/02/10 03:24:09;;;;;;;5.32;1.17;;;;;;;5.26;77.14;102547.53;5088775;28;20079;-53
2023/02/10 03:26:36;;;;;;;6.07;1.25;;;;;;;5.27;77.09;102546.41;5088254;28;20514;-46
2023/02/10 03:29:05;;;;;;;7.63;1.75;;;;;;;5.29;77.15;102537.94;5086813;28;20087;-46
2023/02/10 03:31:32;;;;;;;7.60;1.98;;;;;;;5.31;77.49;102536.56;5094746;28;20075;-47
2023/02/10 03:33:59;;;;;;;8.85;2.35;;;;;;;5.32;77.14;102535.47;5076259;28;20579;-47
2023/02/10 03:36:26;;;;;;;7.47;1.20;;;;;;;5.33;77.53;102534.38;5088382;28;20097;-46
2023/02/10 03:38:53;;;;;;;8.55;1.58;;;;;;;5.34;77.17;102525.06;5088823;28;20106;-47
2023/02/10 03:41:20;;;;;;;11.00;3.42;;;;;;;5.36;77.48;102538.50;5088400;28;20063;-47
2023/02/10 03:43:46;;;;;;;15.65;3.60;;;;;;;5.37;77.41;102532.78;5088313;28;20047;-55
2023/02/10 03:46:13;;;;;;;6.57;1.70;;;;;;;5.39;77.35;102532.50;5087889;28;20079;-46
2023/02/10 03:48:40;;;;;;;7.75;2.55;;;;;;;5.39;77.65;102530.56;5089106;28;20068;-45
2023/02/10 03:51:07;;;;;;;5.43;1.60;;;;;;;5.41;77.46;102522.88;5088152;28;20047;-44
2023/02/10 03:53:35;;;;;;;6.07;1.27;;;;;;;5.42;77.47;102527.28;5087914;28;20127;-44
2023/02/10 03:56:02;;;;;;;10.40;2.05;;;;;;;5.45;77.53;102520.44;5088017;28;20052;-45
2023/02/10 03:58:29;;;;;;;7.13;1.50;;;;;;;5.46;77.63;102520.16;5091049;28;20040;-46
2023/02/10 04:00:56;;;;;;;7.90;1.48;;;;;;;5.47;77.90;102518.25;5073864;28;20514;-51
2023/02/10 04:03:22;;;;;;;7.05;1.20;;;;;;;5.49;77.67;102511.38;5091086;28;20058;-45
2023/02/10 04:05:49;;;;;;;6.03;1.25;;;;;;;5.49;77.97;102511.38;5091980;28;20369;-46
2023/02/10 04:08:16;;;;;;;5.18;1.02;;;;;;;5.53;77.98;102517.19;5091210;28;20044;-47
2023/02/10 04:10:43;;;;;;;11.70;3.58;;;;;;;5.54;77.93;102508.66;5091522;28;20074;-46
2023/02/10 04:13:10;;;;;;;5.00;0.73;;;;;;;5.57;78.19;102509.22;5091033;28;20130;-50
2023/02/10 04:15:37;;;;;;;4.10;1.48;;;;;;;5.59;78.27;102490.56;5091263;28;20036;-46
2023/02/10 04:18:03;;;;;;;3.50;1.15;;;;;;;5.62;78.12;102496.31;5091214;28;20051;-46
2023/02/10 04:20:31;;;;;;;4.18;1.00;;;;;;;5.64;78.31;102490.56;5091213;28;20040;-48
2023/02/10 04:22:58;;;;;;;7.47;1.60;;;;;;;5.67;78.20;102484.50;5082112;28;20552;-46
2023/02/10 04:25:24;;;;;;;6.90;1.88;;;;;;;5.68;78.26;102475.19;5090917;28;20056;-46
2023/02/10 04:27:51;;;;;;;6.13;1.00;;;;;;;5.70;78.34;102481.22;5091358;28;20054;-48
2023/02/10 04:30:18;;;;;;;10.02;1.38;;;;;;;5.74;78.79;102479.59;5085683;28;20123;-45
2023/02/10 04:32:45;;;;;;;7.43;1.10;;;;;;;5.77;78.93;102482.63;5090620;28;20082;-46
2023/02/10 04:35:12;;;;;;;10.32;1.25;;;;;;;5.80;78.84;102482.09;5090656;28;20052;-46
2023/02/10 04:37:38;;;;;;;5.43;1.30;;;;;;;5.83;78.84;102486.22;5091259;28;20522;-46
2023/02/10 04:40:05;;;;;;;3.90;1.00;;;;;;;5.84;79.26;102479.63;5091077;28;20101;-46
2023/02/10 04:42:32;;;;;;;8.30;1.50;;;;;;;5.84;79.05;102480.47;5090724;28;20134;-45
2023/02/10 04:44:59;;;;;;;4.45;1.20;;;;;;;5.86;79.11;102469.22;5090489;28;20048;-46
2023/02/10 04:47:29;;;;;;;4.07;0.95;;;;;;;5.87;79.51;102476.38;5072864;28;20413;-46
2023/02/10 04:49:56;;;;;;;4.00;0.82;;;;;;;5.88;79.36;102486.25;5090794;28;20036;-45
2023/02/10 04:52:23;;;;;;;3.42;1.00;;;;;;;5.89;79.59;102476.91;5090649;28;20504;-47
2023/02/10 04:54:50;;;;;;;5.50;1.27;;;;;;;5.91;79.70;102471.97;5091290;28;20075;-48
2023/02/10 04:57:17;;;;;;;3.55;1.00;;;;;;;5.93;79.84;102467.03;5090600;28;20036;-45
2023/02/10 04:59:43;;;;;;;7.28;1.80;;;;;;;5.96;79.75;102456.31;5090348;28;20404;-45
2023/02/10 05:02:10;;;;;;;5.13;1.02;;;;;;;5.99;80.07;102469.50;5089991;28;20082;-46
2023/02/10 05:04:37;;;;;;;8.32;0.95;;;;;;;6.01;80.21;102466.50;5072530;28;20397;-46
2023/02/10 05:07:04;;;;;;;6.88;1.73;;;;;;;6.04;80.05;102460.44;5090159;28;20097;-45
2023/02/10 05:09:31;;;;;;;1.10;0.60;;;;;;;6.04;80.21;102455.78;5089321;28;20040;-49
2023/02/10 05:11:58;;;;;;;10.50;2.33;;;;;;;6.07;80.35;102457.16;5090039;28;20509;-46
2023/02/10 05:14:25;;;;;;;4.72;0.75;;;;;;;6.08;80.69;102465.13;5090382;28;20048;-45
2023/02/10 05:16:52;;;;;;;2.95;0.77;;;;;;;6.09;80.71;102454.94;5089909;28;20040;-46
2023/02/10 05:19:18;;;;;;;3.30;0.98;;;;;;;6.12;80.73;102454.41;5090153;28;20511;-47
2023/02/10 05:21:45;;;;;;;5.10;0.50;;;;;;;6.13;81.01;102456.91;5089807;28;20393;-46
2023/02/10 05:24:12;;;;;;;4.22;0.77;;;;;;;6.17;81.27;102453.59;5090188;28;20050;-46
2023/02/10 05:26:39;;;;;;;4.28;0.50;;;;;;;6.18;81.08;102453.31;5089747;28;20127;-46
2023/02/10 05:29:05;;;;;;;5.40;0.65;;;;;;;6.20;81.56;102456.59;5090210;28;20036;-46
2023/02/10 05:31:33;;;;;;;5.53;0.68;;;;;;;6.22;81.36;102459.94;5089531;28;20051;-46
2023/02/10 05:33:59;;;;;;;5.78;0.90;;;;;;;6.24;81.52;102454.16;5089988;28;20374;-45
2023/02/10 05:36:26;;;;;;;8.05;0.68;;;;;;;6.27;81.72;102457.19;5089362;28;20097;-45
2023/02/10 05:41:39;;;;;;;5.07;1.80;;;;;;;6.35;81.95;102451.13;5089564;28;20111;-45
2023/02/10 05:44:07;;;;;;;1.35;0.60;;;;;;;6.38;82.11;102452.50;5071279;28;20125;-45
2023/02/10 05:46:34;;;;;;;2.60;0.50;;;;;;;6.40;82.34;102440.13;5090373;28;20461;-50
2023/02/10 05:49:01;;;;;;;5.47;2.30;;;;;;;6.44;82.63;102451.38;5089005;28;20051;-49
2023/02/10 05:51:27;;;;;;;1.98;0.50;;;;;;;6.48;83.09;102467.09;5089742;28;20135;-46
2023/02/10 05:53:54;;;;;;;1.63;0.55;;;;;;;6.53;82.98;102452.50;5088849;28;20139;-46
2023/02/10 05:56:21;;;;;;;1.77;0.55;;;;;;;6.59;83.31;102454.13;5089684;28;20048;-46
2023/02/10 05:58:48;;;;;;;0.45;0.35;;;;;;;6.60;83.40;102451.09;5089201;28;20048;-45
2023/02/10 06:01:15;;;;;;;1.02;0.40;;;;;;;6.65;83.92;102448.34;5071049;28;20066;-46
2023/02/10 06:03:42;;;;;;;1.08;0.60;;;;;;;6.70;84.10;102440.06;5089782;28;20040;-46
2023/02/10 06:06:09;;;;;;;3.35;0.80;;;;;;;6.76;84.24;102454.66;5089073;28;20059;-46
2023/02/10 06:08:36;;;;;;;6.20;0.57;;;;;;;6.81;84.53;102456.56;5089337;28;20221;-45
2023/02/10 06:11:03;;;;;;;3.80;0.70;;;;;;;6.83;84.46;102446.13;5097271;28;20047;-45
2023/02/10 06:13:29;;;;;;;3.78;0.90;;;;;;;6.85;84.57;102441.16;5092524;28;20101;-45
2023/02/10 06:15:56;;;;;;;4.35;0.70;;;;;;;6.88;85.08;102440.59;5071016;28;20148;-45
2023/02/10 06:18:23;;;;;;;4.07;0.73;;;;;;;6.91;85.23;102442.78;5089086;28;20170;-45
2023/02/10 06:20:50;;;;;;;3.33;0.93;;;;;;;6.92;85.43;102453.50;5089359;28;20081;-48
2023/02/10 06:23:17;;;;;;;2.35;1.13;;;;;;;6.95;85.51;102441.13;5088854;28;20131;-47
2023/02/10 06:25:45;;;;;;;2.22;0.60;;;;;;;6.96;85.99;102442.78;5088988;28;20051;-50
2023/02/10 06:28:14;;;;;;;3.60;0.80;;;;;;;6.98;85.77;102440.56;5088718;28;20040;-45
2023/02/10 06:30:41;;;;;;;4.15;0.95;;;;;;;6.99;86.13;102442.22;5081864;28;20139;-46
2023/02/10 06:33:08;;;;;;;4.53;0.82;;;;;;;6.99;86.49;102447.72;5088592;28;20068;-45
2023/02/10 06:35:35;;;;;;;1.80;0.60;;;;;;;7.02;86.65;102438.88;5097179;28;20075;-45
2023/02/10 06:38:02;;;;;;;3.17;0.70;;;;;;;7.03;86.92;102452.38;5089623;28;20044;-46
2023/02/10 06:40:29;;;;;;;0.85;0.40;;;;;;;7.05;86.80;102441.91;5089400;28;20076;-47
2023/02/10 06:42:55;;;;;;;2.70;0.60;;;;;;;7.06;86.99;102442.75;5088594;28;20520;-45
2023/02/10 06:45:24;;;;;;;3.67;1.58;;;;;;;7.07;87.13;102441.66;5089175;28;20262;-45
2023/02/10 06:47:51;;;;;;;2.95;0.75;;;;;;;7.08;87.45;102444.09;5088318;28;20040;-46
2023/02/10 06:50:18;;;;;;;10.15;0.77;;;;;;;7.09;87.52;102432.00;5089084;28;20048;-46
2023/02/10 06:52:45;;;;;;;1.25;1.00;;;;;;;7.10;87.84;102422.63;5089057;28;20145;-45
2023/02/10 06:55:13;;;;;;;3.22;0.63;;;;;;;7.11;87.87;102435.28;5101737;28;20048;-46
2023/02/10 06:57:40;;;;;;;1.90;0.68;;;;;;;7.12;88.07;102441.63;5075547;28;20069;-49
2023/02/10 07:00:10;;;;;;;4.00;0.70;;;;;;;7.12;88.51;102431.41;5050688;28;20072;-46
2023/02/10 07:02:37;;;;;;;3.03;0.70;;;;;;;7.13;88.34;102433.06;5088574;28;20051;-45
2023/02/10 07:05:07;;;;;;;4.38;0.80;;;;;;;7.13;88.53;102438.59;5088144;28;20493;-46
2023/02/10 07:07:35;;;;;;;4.63;0.75;;;;;;;7.13;88.51;102443.25;5088762;28;20040;-45
2023/02/10 07:10:02;;;;;;;3.08;1.10;;;;;;;7.13;88.65;102446.00;5087937;28;20513;-45
2023/02/10 07:12:29;;;;;;;3.55;0.75;;;;;;;7.12;88.88;102439.69;5092444;28;20485;-48
2023/02/10 07:14:55;;;;;;;1.15;0.57;;;;;;;7.14;88.92;102444.91;5070054;28;20409;-45
2023/02/10 07:17:22;;;;;;;2.30;1.00;;;;;;;7.12;88.96;102447.94;5088508;28;20516;-46
2023/02/10 07:19:49;;;;;;;3.97;0.82;;;;;;;7.12;89.15;102458.16;5088331;28;20493;-45
2023/02/10 07:22:16;;;;;;;4.13;0.82;;;;;;;7.11;89.27;102453.75;5088256;28;20054;-49
2023/02/10 07:24:43;;;;;;;2.15;0.90;;;;;;;7.10;89.08;102463.09;5088005;28;20127;-45
2023/02/10 07:27:10;;;;;;;6.75;0.80;;;;;;;7.09;89.32;102458.72;5088521;28;20075;-46
2023/02/10 07:29:37;;;;;;;5.10;1.10;;;;;;;7.09;89.52;102465.03;5088349;28;20044;-46
2023/02/10 07:32:04;;;;;;;1.30;0.70;;;;;;;7.11;89.39;102465.59;5089273;28;20044;-45
2023/02/10 07:34:34;;;;;;;4.13;1.48;;;;;;;7.12;89.52;102469.97;5102152;28;20130;-46
2023/02/10 07:37:01;;;;;;;11.35;1.02;;;;;;;7.11;89.46;102464.75;5092511;28;20044;-43
2023/02/10 07:39:28;;;;;;;1.98;1.00;;;;;;;7.11;89.67;102467.50;5091828;28;20139;-46
2023/02/10 07:41:54;;;;;;;6.43;1.00;;;;;;;7.12;89.81;102471.94;5092049;28;20051;-46
2023/02/10 07:44:21;;;;;;;4.50;0.80;;;;;;;7.12;89.99;102475.47;5091865;28;20046;-45
2023/02/10 07:46:50;;;;;;;6.22;1.58;;;;;;;7.12;90.27;102477.44;5092206;28;20044;-45
2023/02/10 07:49:18;;;;;;;2.53;0.90;;;;;;;7.13;90.02;102470.81;5073437;28;20066;-47
2023/02/10 07:51:44;;;;;;;5.72;0.90;;;;;;;7.12;90.12;102474.69;5091911;28;20052;-52
2023/02/10 07:54:11;;;;;;;1.50;0.68;;;;;;;7.11;90.34;102481.28;5092093;28;20066;-45
2023/02/10 07:56:38;;;;;;;3.97;0.90;;;;;;;7.10;90.56;102483.19;5091816;28;20045;-45
2023/02/10 07:59:05;;;;;;;2.63;0.90;;;;;;;7.12;90.53;102474.69;5091331;28;20056;-47
2023/02/10 08:01:37;;;;;;;4.65;0.98;;;;;;;7.12;90.68;102475.47;5091401;28;20523;-45
2023/02/10 08:04:04;;;;;;;2.83;0.90;;;;;;;7.12;90.39;102489.25;5090945;28;20089;-45
2023/02/10 08:06:31;;;;;;;6.97;1.55;;;;;;;7.12;90.90;102480.97;5091754;28;20086;-45
2023/02/10 08:08:58;;;;;;;3.38;1.10;;;;;;;7.14;91.11;102478.81;5088803;28;20413;-52
2023/02/10 08:11:25;;;;;;;2.97;2.03;;;;;;;7.14;91.03;102478.81;5102534;28;20043;-45
2023/02/10 08:13:52;;;;;;;1.50;1.02;;;;;;;7.16;91.06;102475.75;5091343;28;20040;-44
2023/02/10 08:16:18;;;;;;;2.05;1.00;;;;;;;7.18;91.19;102485.38;5090284;28;20548;-47
2023/02/10 08:18:45;;;;;;;1.77;1.08;;;;;;;7.19;91.56;102470.53;5084664;28;20048;-47
2023/02/10 08:21:12;;;;;;;5.05;1.75;;;;;;;7.20;91.50;102474.91;5098637;28;20042;-45
2023/02/10 08:23:39;;;;;;;3.60;1.00;;;;;;;7.23;91.54;102473.50;5090764;28;20102;-52
2023/02/10 08:26:11;;;;;;;11.23;1.88;;;;;;;7.24;91.72;102466.91;5090725;28;20039;-46
2023/02/10 08:28:39;;;;;;;24.15;2.45;;;;;;;7.27;91.96;102466.34;5078043;28;20085;-46
2023/02/10 08:31:08;;;;;;;5.55;1.65;;;;;;;7.31;91.91;102472.94;5090868;28;20131;-45
2023/02/10 08:33:37;;;;;;;6.28;1.25;;;;;;;7.34;92.10;102466.88;5095545;28;20516;-51
2023/02/10 08:36:15;;;;;;;6.43;1.30;;;;;;;7.39;91.97;102475.09;5094744;28;20044;-45
2023/02/10 08:38:43;;;;;;;3.15;1.10;;;;;;;7.46;92.15;102472.91;5090894;28;20048;-46
2023/02/10 08:41:10;;;;;;;1.85;1.00;;;;;;;7.50;92.14;102482.22;5090947;28;20039;-45
2023/02/10 08:43:37;;;;;;;4.03;1.00;;;;;;;7.54;92.25;102472.31;5090424;28;20072;-47
2023/02/10 08:46:04;;;;;;;4.40;1.45;;;;;;;7.58;92.51;102484.41;5090392;28;20465;-46
2023/02/10 08:48:32;;;;;;;13.07;2.50;;;;;;;7.62;92.61;102499.28;5090271;28;20476;-51
2023/02/10 08:50:59;;;;;;;3.40;0.73;;;;;;;7.68;92.61;102489.03;5090926;28;20138;-45
2023/02/10 08:53:26;;;;;;;1.65;0.75;;;;;;;7.73;92.65;102498.09;5090976;28;20128;-45
2023/02/10 08:56:08;;;;;;;7.70;0.93;;;;;;;7.81;92.94;102488.44;5090282;28;20568;-45
2023/02/10 08:58:35;;;;;;;1.77;0.68;;;;;;;7.85;92.94;102501.38;5090269;28;20516;-45
2023/02/10 09:01:09;;;;;;;2.95;0.70;;;;;;;7.91;92.95;102500.22;5090420;28;20036;-45
2023/02/10 09:03:39;;;;;;;2.22;0.82;;;;;;;7.97;93.04;102503.75;5076681;28;20055;-45
2023/02/10 09:06:16;;;;;;;1.35;0.60;;;;;;;8.01;93.13;102502.09;5090285;28;20063;-46
2023/02/10 09:08:43;;;;;;;2.58;0.65;;;;;;;8.05;93.09;102513.41;5087978;28;20486;-46
2023/02/10 09:11:10;;;;;;;3.28;0.70;;;;;;;8.10;93.25;102518.88;5099631;28;20481;-49
2023/02/10 09:13:37;;;;;;;3.20;0.82;;;;;;;8.14;93.26;102522.69;5089424;28;21202;-45
2023/02/10 09:16:04;;;;;;;3.45;0.40;;;;;;;8.17;93.45;102522.13;5088103;28;20110;-45
2023/02/10 09:18:31;;;;;;;1.92;0.50;;;;;;;8.21;93.68;102529.53;5089927;28;20048;-47
2023/02/10 09:21:00;;;;;;;2.47;0.57;;;;;;;8.25;93.77;102536.16;5088878;28;20089;-46
2023/02/10 09:23:28;;;;;;;2.58;0.50;;;;;;;8.31;93.75;102534.22;5089774;28;20036;-45
2023/02/10 09:25:57;;;;;;;0.88;0.73;;;;;;;8.34;94.12;102530.88;5065894;28;20498;-50
2023/02/10 09:28:25;;;;;;;1.20;0.70;;;;;;;8.38;93.91;102531.94;5090568;28;20059;-47
2023/02/10 09:30:52;;;;;;;10.80;2.22;;;;;;;8.42;93.92;102538.53;5089068;28;20101;-45
2023/02/10 09:33:20;;;;;;;0.77;0.60;;;;;;;8.46;93.71;102539.63;5090622;28;20043;-46
2023/02/10 09:35:47;;;;;;;0.95;0.50;;;;;;;8.50;93.94;102535.16;5095693;28;20054;-48
2023/02/10 09:38:14;;;;;;;1.20;0.50;;;;;;;8.53;94.16;102526.31;5058599;28;20494;-45
2023/02/10 09:41:19;;;;;;;1.17;0.65;;;;;;;8.57;94.01;102533.75;5089128;28;20138;-46
2023/02/10 09:43:57;;;;;;;2.03;1.15;;;;;;;8.61;94.23;102536.72;5063047;28;20143;-45
2023/02/10 09:46:45;;;;;;;1.73;0.60;;;;;;;8.63;94.23;102537.25;5077343;28;20058;-45
2023/02/10 09:49:42;;;;;;;2.42;0.80;;;;;;;8.67;94.29;102532.00;5090022;28;20124;-46
2023/02/10 09:52:23;;;;;;;2.47;0.60;;;;;;;8.71;94.44;102546.88;5084852;28;20052;-46
2023/02/10 09:54:50;;;;;;;0.88;0.73;;;;;;;8.76;94.37;102544.91;5089138;28;20052;-46
2023/02/10 09:57:34;;;;;;;0.60;0.57;;;;;;;8.78;94.28;102545.44;5075530;28;20048;-46
2023/02/10 10:00:03;;;;;;;3.22;0.80;;;;;;;8.82;94.50;102532.69;5089194;28;20074;-45
2023/02/10 10:02:45;;;;;;;1.20;0.43;;;;;;;8.84;94.29;102530.44;5083443;28;20048;-47
2023/02/10 10:05:45;;;;;;;2.15;0.73;;;;;;;8.89;94.54;102522.16;5084438;28;20079;-45
2023/02/10 10:08:29;;;;;;;1.00;0.80;;;;;;;8.94;94.51;102524.03;5089185;28;20071;-47
2023/02/10 10:11:05;;;;;;;2.33;0.57;;;;;;;8.99;94.49;102527.56;5095801;28;20449;-45
2023/02/10 10:13:32;;;;;;;1.45;0.70;;;;;;;9.04;94.53;102519.22;5072260;28;20130;-47
2023/02/10 10:16:17;;;;;;;1.10;0.70;;;;;;;9.10;94.65;102523.59;5089249;28;20102;-45
2023/02/10 10:18:56;;;;;;;3.53;0.90;;;;;;;9.14;94.67;102526.56;5089642;28;20032;-47
2023/02/10 10:21:30;;;;;;;2.67;0.90;;;;;;;9.18;94.73;102531.25;5089253;28;20048;-45
2023/02/10 10:24:30;;;;;;;3.83;1.05;;;;;;;9.24;94.84;102522.91;5088951;28;20448;-46
2023/02/10 10:27:24;;;;;;;1.00;0.90;;;;;;;9.27;94.71;102530.56;5088884;28;20524;-45
2023/02/10 10:30:05;;;;;;;1.90;0.50;;;;;;;9.32;94.74;102536.06;5060485;28;20059;-45
2023/02/10 10:32:32;;;;;;;0.80;0.40;;;;;;;9.35;94.72;102536.28;5088927;28;20051;-46
2023/02/10 10:35:01;;;;;;;0.68;0.50;;;;;;;9.38;94.76;102521.06;5099430;28;20072;-48
2023/02/10 10:37:28;;;;;;;0.47;0.40;;;;;;;9.42;94.89;102524.91;5088458;28;20093;-46
2023/02/10 10:40:03;;;;;;;0.40;0.30;;;;;;;9.46;95.25;102528.72;5070460;28;20048;-45
2023/02/10 10:43:08;;;;;;;2.42;0.52;;;;;;;9.48;94.65;102521.75;5088880;28;20040;-46
2023/02/10 10:45:47;;;;;;;0.75;0.30;;;;;;;9.52;94.63;102519.25;5038788;28;20439;-45
2023/02/10 10:48:27;;;;;;;3.33;0.30;;;;;;;9.55;94.72;102515.88;5088809;28;20143;-45
2023/02/10 10:50:58;;;;;;;1.20;0.25;;;;;;;9.60;94.62;102522.19;5064631;28;20037;-46
2023/02/10 10:53:26;;;;;;;1.13;0.50;;;;;;;9.63;94.47;102520.75;5084523;28;20405;-45
2023/02/10 10:55:55;;;;;;;2.58;0.70;;;;;;;9.67;94.61;102528.16;5088126;28;20142;-45
2023/02/10 10:58:44;;;;;;;0.47;0.47;;;;;;;9.72;94.52;102516.22;5088287;28;20048;-46
2023/02/10 11:01:13;;;;;;;0.40;0.40;;;;;;;9.74;94.28;102527.81;5084555;28;20093;-46
2023/02/10 11:03:40;;;;;;;0.38;0.30;;;;;;;9.77;94.37;102525.25;5075325;28;20048;-47
2023/02/10 11:06:14;;;;;;;0.30;0.30;;;;;;;9.79;94.23;102513.94;5088340;28;20084;-45
2023/02/10 11:09:00;;;;;;;1.90;0.32;;;;;;;9.82;94.16;102529.94;5092195;28;20043;-47
2023/02/10 11:11:46;;;;;;;1.83;0.43;;;;;;;9.84;94.17;102522.16;5084110;28;20032;-45
2023/02/10 11:14:21;;;;;;;0.45;0.30;;;;;;;9.86;94.04;102519.91;5081007;28;20076;-45
2023/02/10 11:16:57;;;;;;;1.92;0.60;;;;;;;9.90;94.06;102518.19;5092545;28;20036;-45
2023/02/10 11:19:28;;;;;;;2.10;0.47;;;;;;;9.91;93.96;102519.84;5092306;28;20489;-46
2023/02/10 11:22:19;;;;;;;1.75;0.50;;;;;;;9.98;94.12;102523.03;5092218;28;20051;-47
2023/02/10 11:24:53;;;;;;;0.40;0.40;;;;;;;10.02;93.92;102535.19;5092250;28;20497;-46
2023/02/10 11:27:21;;;;;;;0.50;0.50;;;;;;;10.05;93.94;102539.28;5092517;28;20036;-46
2023/02/10 11:29:56;;;;;;;0.45;0.40;;;;;;;10.07;93.66;102537.03;5092111;28;20051;-46
2023/02/10 11:32:27;;;;;;;2.47;0.57;;;;;;;10.06;93.47;102535.41;5092091;28;20060;-47
2023/02/10 11:34:57;;;;;;;1.42;0.60;;;;;;;10.05;93.50;102534.59;5099236;28;20045;-45
2023/02/10 11:37:39;;;;;;;1.13;0.50;;;;;;;10.08;93.64;102528.47;5085243;28;20062;-45
2023/02/10 11:40:24;;;;;;;8.65;1.10;;;;;;;10.08;93.58;102516.56;5091849;28;20055;-50
2023/02/10 11:42:54;;;;;;;5.10;0.90;;;;;;;10.08;93.56;102527.63;5092759;28;20044;-45
2023/02/10 11:45:29;;;;;;;1.05;0.82;;;;;;;10.10;93.51;102514.31;5091802;28;20105;-46
2023/02/10 11:48:04;;;;;;;3.70;0.77;;;;;;;10.10;93.37;102520.69;5091614;28;20048;-46
2023/02/10 11:50:34;;;;;;;5.20;0.50;;;;;;;10.14;93.26;102515.41;5091456;28;20473;-46